createdAt,value
2019-04-07T00:01:02.617Z,27.8
2019-04-07T00:02:06.252Z,28.1
2019-04-07T00:03:09.696Z,28.1
2019-04-07T00:04:13.370Z,28.2
2019-04-07T00:05:16.370Z,28.1
2019-04-07T00:06:20.329Z,28.2
2019-04-07T00:07:25.115Z,28
2019-04-07T00:08:31.188Z,28.1
2019-04-07T00:09:35.537Z,28
2019-04-07T00:10:38.432Z,28.4
2019-04-07T00:11:40.699Z,28.1
2019-04-07T00:12:43.781Z,28.1
2019-04-07T00:13:46.904Z,27.9
2019-04-07T00:14:51.406Z,28
2019-04-07T00:15:54.580Z,28
2019-04-07T00:16:57.923Z,28
2019-04-07T00:18:02.355Z,28
2019-04-07T00:19:06.560Z,28.1
2019-04-07T00:20:09.756Z,28.4
2019-04-07T00:21:13.578Z,28.2
2019-04-07T00:22:18.557Z,28.1
2019-04-07T00:23:22.557Z,28.3
2019-04-07T00:24:25.113Z,28.3
2019-04-07T00:25:27.659Z,28.5
2019-04-07T00:26:31.211Z,28.5
2019-04-07T00:27:33.659Z,28.1
2019-04-07T00:28:35.879Z,28.3
2019-04-07T00:29:38.893Z,28.3
2019-04-07T00:30:42.504Z,28.2
2019-04-07T00:31:44.823Z,28.3
2019-04-07T00:32:46.966Z,28.2
2019-04-07T00:33:49.635Z,28.3
2019-04-07T00:34:52.993Z,28.4
2019-04-07T00:35:57.336Z,28.2
2019-04-07T00:37:01.796Z,28.3
2019-04-07T00:38:04.840Z,28.3
2019-04-07T00:39:07.957Z,28.1
2019-04-07T00:40:11.056Z,28.2
2019-04-07T00:41:15.538Z,28.4
2019-04-07T00:42:19.381Z,28.1
2019-04-07T00:43:22.012Z,28.4
2019-04-07T00:44:24.756Z,28.1
2019-04-07T00:45:27.233Z,28.4
2019-04-07T00:46:30.016Z,28.3
2019-04-07T00:47:32.762Z,28.4
2019-04-07T00:48:36.472Z,28.6
2019-04-07T00:49:40.188Z,28.3
2019-04-07T00:50:43.976Z,28.2
2019-04-07T00:51:47.585Z,28.1
2019-04-07T00:52:52.515Z,28.4
2019-04-07T00:53:56.470Z,28.2
2019-04-07T00:54:59.241Z,28.2
2019-04-07T00:56:02.893Z,28.4
2019-04-07T00:57:06.665Z,28.6
2019-04-07T00:58:09.268Z,28.3
2019-04-07T00:59:11.256Z,28.4
2019-04-07T01:00:16.552Z,28.2
2019-04-07T01:01:22.119Z,28
2019-04-07T01:02:26.009Z,28
2019-04-07T01:03:29.199Z,28.3
2019-04-07T01:04:31.874Z,28.3
2019-04-07T01:05:38.455Z,28.2
2019-04-07T01:06:39.975Z,28.4
2019-04-07T01:07:45.309Z,28.4
2019-04-07T01:08:49.006Z,28.4
2019-04-07T01:09:52.015Z,28.3
2019-04-07T01:10:56.946Z,28.2
2019-04-07T01:12:00.172Z,28.2
2019-04-07T01:13:03.385Z,28.4
2019-04-07T01:14:08.284Z,28.5
2019-04-07T01:15:12.877Z,28.3
2019-04-07T01:16:16.297Z,28.3
2019-04-07T01:17:19.286Z,28.1
2019-04-07T01:18:22.076Z,28.4
2019-04-07T01:19:28.855Z,28.3
2019-04-07T01:20:31.742Z,28.2
2019-04-07T01:21:33.623Z,28.4
2019-04-07T01:22:37.251Z,28.1
2019-04-07T01:23:40.372Z,28.3
2019-04-07T01:24:44.117Z,28.4
2019-04-07T01:25:47.321Z,28
2019-04-07T01:26:49.777Z,28.1
2019-04-07T01:27:53.014Z,28.1
2019-04-07T01:28:57.115Z,28.3
2019-04-07T01:30:00.970Z,28.1
2019-04-07T01:31:05.549Z,28.1
2019-04-07T01:32:10.298Z,28.3
2019-04-07T01:33:12.763Z,28.1
2019-04-07T01:34:15.964Z,28.1
2019-04-07T01:35:18.151Z,28
2019-04-07T01:36:21.637Z,28.3
2019-04-07T01:37:26.386Z,28
2019-04-07T01:38:30.641Z,28.2
2019-04-07T01:39:34.908Z,28.3
2019-04-07T01:40:37.804Z,28.4
2019-04-07T01:41:41.725Z,28.5
2019-04-07T01:42:44.666Z,28.3
2019-04-07T01:43:48.162Z,28
2019-04-07T01:44:51.046Z,28.3
2019-04-07T01:45:54.583Z,28.5
2019-04-07T01:46:57.056Z,28.3
2019-04-07T01:48:00.691Z,28.3
2019-04-07T01:49:03.226Z,28.2
2019-04-07T01:50:05.659Z,28
2019-04-07T01:51:09.199Z,28.6
2019-04-07T01:52:12.952Z,28
2019-04-07T01:53:15.519Z,28.4
2019-04-07T01:54:18.526Z,28.4
2019-04-07T01:55:22.362Z,28.2
2019-04-07T01:56:27.365Z,27.9
2019-04-07T01:57:32.308Z,28.4
2019-04-07T01:58:35.977Z,28.1
2019-04-07T01:59:39.611Z,28.1
2019-04-07T02:00:43.000Z,28
2019-04-07T02:01:46.634Z,28
2019-04-07T02:02:50.894Z,28.2
2019-04-07T02:03:54.007Z,28.1
2019-04-07T02:04:56.743Z,28.3
2019-04-07T02:06:02.993Z,28.2
2019-04-07T02:07:06.089Z,28.2
2019-04-07T02:08:09.658Z,28.4
2019-04-07T02:09:13.627Z,28.3
2019-04-07T02:10:16.756Z,28.3
2019-04-07T02:11:21.123Z,28.2
2019-04-07T02:12:24.846Z,28.3
2019-04-07T02:13:28.709Z,28.1
2019-04-07T02:14:31.107Z,28.1
2019-04-07T02:15:33.978Z,28.2
2019-04-07T02:16:36.750Z,28.6
2019-04-07T02:17:39.183Z,28.4
2019-04-07T02:18:43.286Z,28.3
2019-04-07T02:19:48.248Z,28.6
2019-04-07T02:20:53.054Z,28.3
2019-04-07T02:21:55.835Z,28.3
2019-04-07T02:22:58.849Z,28.3
2019-04-07T02:24:03.523Z,28.4
2019-04-07T02:25:06.965Z,28.3
2019-04-07T02:26:08.962Z,28.1
2019-04-07T02:27:11.928Z,28.2
2019-04-07T02:28:17.590Z,27.9
2019-04-07T02:29:22.398Z,28
2019-04-07T02:30:25.689Z,28.2
2019-04-07T02:31:28.198Z,28.4
2019-04-07T02:32:32.878Z,28.3
2019-04-07T02:33:37.190Z,28.3
2019-04-07T02:34:41.427Z,28.2
2019-04-07T02:35:47.012Z,28.3
2019-04-07T02:36:53.651Z,28
2019-04-07T02:37:57.056Z,28.3
2019-04-07T02:39:00.071Z,28.2
2019-04-07T02:40:04.935Z,28.2
2019-04-07T02:41:08.959Z,28.3
2019-04-07T02:42:13.455Z,28
2019-04-07T02:43:19.291Z,28
2019-04-07T02:44:22.600Z,28.3
2019-04-07T02:45:28.301Z,28.4
2019-04-07T02:46:31.549Z,28.4
2019-04-07T02:47:35.672Z,28.4
2019-04-07T02:48:39.852Z,28.4
2019-04-07T02:49:43.683Z,28.1
2019-04-07T02:50:48.058Z,28.2
2019-04-07T02:51:51.586Z,28.3
2019-04-07T02:52:57.165Z,28.3
2019-04-07T02:54:02.487Z,28.2
2019-04-07T02:55:04.757Z,28
2019-04-07T02:56:08.066Z,28.1
2019-04-07T02:57:11.900Z,28.2
2019-04-07T02:58:16.365Z,28.3
2019-04-07T02:59:19.916Z,28.3
2019-04-07T03:00:24.551Z,28.2
2019-04-07T03:01:27.752Z,28.3
2019-04-07T03:02:31.723Z,28.4
2019-04-07T03:03:36.803Z,28.4
2019-04-07T03:04:41.713Z,28.1
2019-04-07T03:05:47.590Z,28.3
2019-04-07T03:06:53.383Z,28
2019-04-07T03:07:59.453Z,28.3
2019-04-07T03:09:04.281Z,28.3
2019-04-07T03:10:08.888Z,28
2019-04-07T03:11:12.304Z,28
2019-04-07T03:12:17.486Z,28
2019-04-07T03:13:22.905Z,27.9
2019-04-07T03:14:26.714Z,27.9
2019-04-07T03:15:31.069Z,27.9
2019-04-07T03:16:35.476Z,28
2019-04-07T03:17:38.915Z,27.9
2019-04-07T03:18:42.645Z,27.9
2019-04-07T03:19:46.812Z,28
2019-04-07T03:20:50.100Z,27.9
2019-04-07T03:21:54.368Z,27.9
2019-04-07T03:22:58.909Z,28
2019-04-07T03:24:04.204Z,27.7
2019-04-07T03:25:08.529Z,27.9
2019-04-07T03:26:13.696Z,28.1
2019-04-07T03:27:18.966Z,27.8
2019-04-07T03:28:21.443Z,27.8
2019-04-07T03:29:24.582Z,27.8
2019-04-07T03:30:32.255Z,27.8
2019-04-07T03:31:33.702Z,27.7
2019-04-07T03:32:45.160Z,27.8
2019-04-07T03:33:49.636Z,27.8
2019-04-07T03:34:53.506Z,27.9
2019-04-07T03:36:01.612Z,27.7
2019-04-07T03:37:21.120Z,27.8
2019-04-07T03:38:09.073Z,27.7
2019-04-07T03:39:12.683Z,27.7
2019-04-07T03:40:16.117Z,27.9
2019-04-07T03:41:20.623Z,27.7
2019-04-07T03:42:24.417Z,27.6
2019-04-07T03:43:28.043Z,27.6
2019-04-07T03:44:32.266Z,27.7
2019-04-07T03:45:35.804Z,27.7
2019-04-07T03:46:39.388Z,27.6
2019-04-07T03:47:44.047Z,27.5
2019-04-07T03:48:48.070Z,27.6
2019-04-07T03:49:52.844Z,27.5
2019-04-07T03:50:57.463Z,27.5
2019-04-07T03:52:04.619Z,27.7
2019-04-07T03:53:08.607Z,27.6
2019-04-07T03:54:13.011Z,27.4
2019-04-07T03:55:19.285Z,27.6
2019-04-07T03:56:25.443Z,27.8
2019-04-07T03:57:28.756Z,27.7
2019-04-07T03:58:32.929Z,27.8
2019-04-07T03:59:36.810Z,27.6
2019-04-07T04:00:39.822Z,27.7
2019-04-07T04:01:45.395Z,27.4
2019-04-07T04:02:48.724Z,27.5
2019-04-07T04:03:52.011Z,27.9
2019-04-07T04:04:57.642Z,27.4
2019-04-07T04:06:02.643Z,27.7
2019-04-07T04:07:20.061Z,27.7
2019-04-07T04:08:12.350Z,27.4
2019-04-07T04:09:17.236Z,27.7
2019-04-07T04:10:19.812Z,27.4
2019-04-07T04:11:25.428Z,27.8
2019-04-07T04:12:29.899Z,27.7
2019-04-07T04:13:33.227Z,27.8
2019-04-07T04:14:37.631Z,27.8
2019-04-07T04:15:41.513Z,27.7
2019-04-07T04:16:45.738Z,27.4
2019-04-07T04:17:51.138Z,27.6
2019-04-07T04:18:56.458Z,27.7
2019-04-07T04:20:00.675Z,27.5
2019-04-07T04:21:03.631Z,27.5
2019-04-07T04:22:07.164Z,27.6
2019-04-07T04:23:11.564Z,27.7
2019-04-07T04:24:16.733Z,27.7
2019-04-07T04:25:21.979Z,27.6
2019-04-07T04:26:26.819Z,27.6
2019-04-07T04:27:31.435Z,27.6
2019-04-07T04:28:35.665Z,27.4
2019-04-07T04:29:39.558Z,27.6
2019-04-07T04:30:44.035Z,27.4
2019-04-07T04:31:47.342Z,27.6
2019-04-07T04:32:50.647Z,27.3
2019-04-07T04:33:55.600Z,27.6
2019-04-07T04:34:59.478Z,27.5
2019-04-07T04:36:04.366Z,27.6
2019-04-07T04:37:09.450Z,27.4
2019-04-07T04:38:13.637Z,27.7
2019-04-07T04:39:19.986Z,27.6
2019-04-07T04:40:24.241Z,27.5
2019-04-07T04:41:27.335Z,27.6
2019-04-07T04:42:31.209Z,27.6
2019-04-07T04:43:36.368Z,27.5
2019-04-07T04:44:40.634Z,27.4
2019-04-07T04:45:46.358Z,27.6
2019-04-07T04:46:50.952Z,27.5
2019-04-07T04:47:54.045Z,27.4
2019-04-07T04:48:58.730Z,27.6
2019-04-07T04:50:02.166Z,27.4
2019-04-07T04:51:10.287Z,27.4
2019-04-07T04:52:15.595Z,27.6
2019-04-07T04:53:19.023Z,27.5
2019-04-07T04:54:21.567Z,27.4
2019-04-07T04:55:25.452Z,27.5
2019-04-07T04:56:28.800Z,27.4
2019-04-07T04:57:33.957Z,27.4
2019-04-07T04:58:38.051Z,27.4
2019-04-07T04:59:40.493Z,27.5
2019-04-07T05:00:44.760Z,27.5
2019-04-07T05:01:47.815Z,27.4
2019-04-07T05:02:52.513Z,27.7
2019-04-07T05:03:55.846Z,27.4
2019-04-07T05:04:59.347Z,27.5
2019-04-07T05:06:10.199Z,27.4
2019-04-07T05:07:15.642Z,27.4
2019-04-07T05:08:20.466Z,27.5
2019-04-07T05:09:23.197Z,27.6
2019-04-07T05:10:32.455Z,27.6
2019-04-07T05:11:35.896Z,27.5
2019-04-07T05:12:39.116Z,27.3
2019-04-07T05:13:43.917Z,27.4
2019-04-07T05:14:46.078Z,27.5
2019-04-07T05:15:50.168Z,27.5
2019-04-07T05:16:53.263Z,27.5
2019-04-07T05:17:57.291Z,27.6
2019-04-07T05:19:00.916Z,27.4
2019-04-07T05:20:05.824Z,27.6
2019-04-07T05:21:11.849Z,27.4
2019-04-07T05:22:15.611Z,27.4
2019-04-07T05:23:19.617Z,27.4
2019-04-07T05:24:22.270Z,27.4
2019-04-07T05:25:25.268Z,27.5
2019-04-07T05:26:29.114Z,27.2
2019-04-07T05:27:32.759Z,27.3
2019-04-07T05:28:36.956Z,27.5
2019-04-07T05:29:41.289Z,27.5
2019-04-07T05:30:43.600Z,27.4
2019-04-07T05:31:45.907Z,27.4
2019-04-07T05:32:48.070Z,27.4
2019-04-07T05:33:51.150Z,27.5
2019-04-07T05:34:53.856Z,27.2
2019-04-07T05:35:58.383Z,27.4
2019-04-07T05:37:02.184Z,27.5
2019-04-07T05:38:06.649Z,27.2
2019-04-07T05:39:10.339Z,27.5
2019-04-07T05:40:14.019Z,27.4
2019-04-07T05:41:17.410Z,27.4
2019-04-07T05:42:20.317Z,27.4
2019-04-07T05:43:23.079Z,27.4
2019-04-07T05:44:26.748Z,27.4
2019-04-07T05:45:30.429Z,27.5
2019-04-07T05:46:40.020Z,27.3
2019-04-07T05:47:45.895Z,27.2
2019-04-07T05:48:47.466Z,27.5
2019-04-07T05:49:54.267Z,27.3
2019-04-07T05:50:59.877Z,27.5
2019-04-07T05:52:04.579Z,27.4
2019-04-07T05:53:10.889Z,27.3
2019-04-07T05:54:12.426Z,27.4
2019-04-07T05:55:20.555Z,27.4
2019-04-07T05:56:25.828Z,27.2
2019-04-07T05:57:30.713Z,27.3
2019-04-07T05:58:33.981Z,27.4
2019-04-07T05:59:42.206Z,27.3
2019-04-07T06:00:48.911Z,27.3
2019-04-07T06:01:58.353Z,27.2
2019-04-07T06:02:57.201Z,27.2
2019-04-07T06:04:03.786Z,27.2
2019-04-07T06:05:07.837Z,27.3
2019-04-07T06:06:11.610Z,27.4
2019-04-07T06:07:16.384Z,27.3
2019-04-07T06:08:27.590Z,27.3
2019-04-07T06:09:25.114Z,27.2
2019-04-07T06:10:30.584Z,27.3
2019-04-07T06:11:35.047Z,27.2
2019-04-07T06:12:40.300Z,27.1
2019-04-07T06:13:44.479Z,27.3
2019-04-07T06:14:49.778Z,27.3
2019-04-07T06:15:54.011Z,27.3
2019-04-07T06:16:57.046Z,27.2
2019-04-07T06:18:01.418Z,27.3
2019-04-07T06:19:07.953Z,27.1
2019-04-07T06:20:14.029Z,27.2
2019-04-07T06:21:16.233Z,27.2
2019-04-07T06:22:20.967Z,27.2
2019-04-07T06:23:25.839Z,27.4
2019-04-07T06:24:31.454Z,27.4
2019-04-07T06:25:38.543Z,27.3
2019-04-07T06:26:42.038Z,27.5
2019-04-07T06:27:45.216Z,27.4
2019-04-07T06:28:53.098Z,27.5
2019-04-07T06:29:58.941Z,27.4
2019-04-07T06:31:01.301Z,27.3
2019-04-07T06:32:09.081Z,27.3
2019-04-07T06:33:12.098Z,27.3
2019-04-07T06:34:17.193Z,27
2019-04-07T06:35:20.863Z,27.2
2019-04-07T06:36:26.491Z,27.3
2019-04-07T06:37:30.794Z,27.1
2019-04-07T06:38:36.681Z,27.2
2019-04-07T06:39:39.527Z,27.3
2019-04-07T06:40:43.686Z,27.3
2019-04-07T06:41:47.625Z,27.2
2019-04-07T06:42:50.823Z,27.2
2019-04-07T06:43:54.174Z,27.3
2019-04-07T06:45:00.317Z,27.3
2019-04-07T06:46:03.840Z,27.2
2019-04-07T06:47:08.871Z,27.1
2019-04-07T06:48:11.437Z,27.1
2019-04-07T06:49:15.436Z,27.2
2019-04-07T06:50:18.037Z,27.2
2019-04-07T06:51:22.937Z,27.1
2019-04-07T06:52:30.212Z,27.4
2019-04-07T06:53:34.850Z,27.2
2019-04-07T06:54:37.701Z,27.2
2019-04-07T06:55:41.698Z,27.1
2019-04-07T06:56:46.607Z,27.3
2019-04-07T06:57:49.564Z,27.2
2019-04-07T06:58:53.254Z,27.1
2019-04-07T06:59:56.799Z,27.3
2019-04-07T07:01:03.094Z,27.1
2019-04-07T07:02:07.413Z,27.4
2019-04-07T07:03:11.599Z,27.2
2019-04-07T07:04:15.672Z,27.1
2019-04-07T07:05:19.268Z,27.3
2019-04-07T07:06:22.934Z,27.1
2019-04-07T07:07:28.130Z,27.1
2019-04-07T07:08:41.653Z,27.3
2019-04-07T07:09:35.944Z,27.3
2019-04-07T07:10:42.911Z,27.3
2019-04-07T07:11:46.197Z,27.2
2019-04-07T07:12:49.578Z,27.1
2019-04-07T07:13:53.286Z,27.3
2019-04-07T07:14:56.152Z,27.1
2019-04-07T07:16:01.690Z,27.3
2019-04-07T07:17:07.868Z,27
2019-04-07T07:18:11.439Z,27
2019-04-07T07:19:15.152Z,27.4
2019-04-07T07:20:17.712Z,27
2019-04-07T07:21:24.464Z,27.1
2019-04-07T07:22:28.595Z,27.4
2019-04-07T07:23:32.123Z,27.1
2019-04-07T07:24:35.780Z,27.2
2019-04-07T07:25:40.879Z,27.2
2019-04-07T07:26:44.203Z,27.1
2019-04-07T07:27:48.943Z,27.1
2019-04-07T07:28:53.041Z,27.3
2019-04-07T07:29:58.061Z,27.3
2019-04-07T07:31:02.207Z,27.1
2019-04-07T07:32:06.377Z,27
2019-04-07T07:33:11.093Z,27.2
2019-04-07T07:34:15.529Z,27.4
2019-04-07T07:35:20.200Z,27.2
2019-04-07T07:36:24.094Z,27.2
2019-04-07T07:37:28.111Z,27.2
2019-04-07T07:38:33.449Z,27.3
2019-04-07T07:39:36.295Z,27.2
2019-04-07T07:40:42.713Z,27.3
2019-04-07T07:41:50.264Z,27.3
2019-04-07T07:42:57.973Z,27
2019-04-07T07:44:03.301Z,27.1
2019-04-07T07:45:08.045Z,27
2019-04-07T07:46:10.593Z,27.2
2019-04-07T07:47:20.710Z,27.2
2019-04-07T07:48:26.358Z,27.3
2019-04-07T07:49:31.544Z,27
2019-04-07T07:50:34.629Z,27.3
2019-04-07T07:51:39.770Z,27.4
2019-04-07T07:52:49.176Z,27
2019-04-07T07:53:51.698Z,27.2
2019-04-07T07:55:00.749Z,27.1
2019-04-07T07:56:08.171Z,27.4
2019-04-07T07:57:08.815Z,27.2
2019-04-07T07:58:15.735Z,27.3
2019-04-07T07:59:22.537Z,27.3
2019-04-07T08:00:26.594Z,27.3
2019-04-07T08:01:37.777Z,27.4
2019-04-07T08:02:48.883Z,27.2
2019-04-07T08:03:52.924Z,27.2
2019-04-07T08:04:57.739Z,27.2
2019-04-07T08:06:04.081Z,27.2
2019-04-07T08:07:06.654Z,27.1
2019-04-07T08:08:14.937Z,27.2
2019-04-07T08:09:21.394Z,27.1
2019-04-07T08:10:24.992Z,27.5
2019-04-07T08:11:30.749Z,27.2
2019-04-07T08:12:34.615Z,27.1
2019-04-07T08:13:43.275Z,27.2
2019-04-07T08:14:42.618Z,27.3
2019-04-07T08:15:49.394Z,27.3
2019-04-07T08:16:53.063Z,27.4
2019-04-07T08:18:04.670Z,27.4
2019-04-07T08:19:09.091Z,27.1
2019-04-07T08:20:12.874Z,27.4
2019-04-07T08:21:19.934Z,27.2
2019-04-07T08:22:29.197Z,27.3
2019-04-07T08:23:28.596Z,27.3
2019-04-07T08:24:32.685Z,27.2
2019-04-07T08:25:35.810Z,27.3
2019-04-07T08:26:39.543Z,27.2
2019-04-07T08:27:43.036Z,27.3
2019-04-07T08:28:46.837Z,27.2
2019-04-07T08:29:52.641Z,27.2
2019-04-07T08:30:55.736Z,27.3
2019-04-07T08:31:58.947Z,27
2019-04-07T08:33:02.159Z,27.2
2019-04-07T08:34:06.021Z,27.2
2019-04-07T08:35:10.472Z,27.5
2019-04-07T08:36:15.033Z,27.2
2019-04-07T08:37:17.967Z,27.2
2019-04-07T08:38:26.659Z,27.2
2019-04-07T08:39:31.746Z,27.1
2019-04-07T08:40:36.445Z,27.5
2019-04-07T08:41:40.585Z,27.4
2019-04-07T08:42:44.365Z,27.1
2019-04-07T08:43:48.488Z,27.2
2019-04-07T08:44:57.145Z,27.4
2019-04-07T08:46:02.184Z,27.4
2019-04-07T08:47:03.951Z,27.4
2019-04-07T08:48:07.381Z,27.3
2019-04-07T08:49:11.704Z,27.2
2019-04-07T08:50:15.229Z,27.4
2019-04-07T08:51:23.145Z,27.4
2019-04-07T08:52:30.426Z,27.4
2019-04-07T08:53:43.491Z,27.3
2019-04-07T08:54:48.201Z,27.2
2019-04-07T08:55:52.076Z,27.4
2019-04-07T08:56:56.717Z,27.2
2019-04-07T08:58:02.297Z,27
2019-04-07T08:59:07.828Z,27.2
2019-04-07T09:00:12.503Z,26.9
2019-04-07T09:01:16.574Z,27.1
2019-04-07T09:02:20.032Z,27.1
2019-04-07T09:03:25.778Z,27.3
2019-04-07T09:04:29.691Z,27.3
2019-04-07T09:05:33.532Z,27.4
2019-04-07T09:06:37.468Z,27.3
2019-04-07T09:07:42.152Z,27.4
2019-04-07T09:08:44.989Z,27.3
2019-04-07T09:09:49.058Z,27.1
2019-04-07T09:10:53.789Z,27.3
2019-04-07T09:11:59.317Z,27.4
2019-04-07T09:13:04.878Z,27.3
2019-04-07T09:14:08.753Z,27.2
2019-04-07T09:15:13.057Z,27.1
2019-04-07T09:16:17.192Z,27.2
2019-04-07T09:17:31.948Z,27.1
2019-04-07T09:18:28.981Z,27.2
2019-04-07T09:19:34.923Z,27.1
2019-04-07T09:20:40.215Z,27.2
2019-04-07T09:21:44.929Z,27.2
2019-04-07T09:22:51.325Z,27.4
2019-04-07T09:23:55.137Z,27.2
2019-04-07T09:24:57.899Z,27.2
2019-04-07T09:26:03.114Z,27.1
2019-04-07T09:27:11.263Z,27.3
2019-04-07T09:28:17.826Z,27.1
2019-04-07T09:29:21.042Z,27.4
2019-04-07T09:30:27.255Z,27.1
2019-04-07T09:31:30.424Z,27.1
2019-04-07T09:32:34.637Z,27.2
2019-04-07T09:33:38.755Z,27
2019-04-07T09:34:41.409Z,27.2
2019-04-07T09:35:43.791Z,27.2
2019-04-07T09:36:49.396Z,27.2
2019-04-07T09:37:53.269Z,27.2
2019-04-07T09:38:58.439Z,27.3
2019-04-07T09:40:03.417Z,27.1
2019-04-07T09:41:06.245Z,27.2
2019-04-07T09:42:09.955Z,27.1
2019-04-07T09:43:12.660Z,26.9
2019-04-07T09:44:18.157Z,27.1
2019-04-07T09:45:22.819Z,27.1
2019-04-07T09:46:27.582Z,27.2
2019-04-07T09:47:31.634Z,27.3
2019-04-07T09:48:33.910Z,27
2019-04-07T09:49:41.366Z,27.2
2019-04-07T09:50:48.514Z,27.2
2019-04-07T09:51:51.921Z,27.2
2019-04-07T09:52:56.730Z,26.9
2019-04-07T09:53:59.159Z,27.1
2019-04-07T09:55:02.013Z,27.1
2019-04-07T09:56:11.690Z,27.2
2019-04-07T09:57:15.654Z,27.2
2019-04-07T09:58:21.268Z,27.2
2019-04-07T09:59:24.482Z,27
2019-04-07T10:00:26.974Z,27
2019-04-07T10:01:30.768Z,27
2019-04-07T10:02:35.892Z,27.1
2019-04-07T10:03:40.384Z,27.2
2019-04-07T10:04:42.648Z,27.1
2019-04-07T10:05:45.191Z,27.2
2019-04-07T10:06:49.463Z,27.1
2019-04-07T10:07:51.811Z,27.2
2019-04-07T10:08:55.946Z,27.1
2019-04-07T10:10:05.926Z,27.1
2019-04-07T10:11:03.170Z,27.4
2019-04-07T10:12:06.834Z,27.2
2019-04-07T10:13:11.082Z,27.3
2019-04-07T10:14:16.722Z,27.1
2019-04-07T10:15:20.165Z,27.2
2019-04-07T10:16:23.405Z,27.1
2019-04-07T10:17:26.386Z,27.2
2019-04-07T10:18:32.504Z,27.2
2019-04-07T10:19:36.226Z,27.3
2019-04-07T10:20:39.687Z,27.1
2019-04-07T10:21:45.026Z,26.9
2019-04-07T10:22:48.355Z,27.4
2019-04-07T10:23:52.556Z,27.1
2019-04-07T10:24:57.092Z,27.3
2019-04-07T10:26:00.447Z,27.1
2019-04-07T10:27:04.665Z,27.2
2019-04-07T10:28:12.327Z,27.3
2019-04-07T10:29:15.436Z,27.4
2019-04-07T10:30:21.076Z,27.1
2019-04-07T10:31:26.546Z,27.3
2019-04-07T10:32:30.773Z,27
2019-04-07T10:33:34.311Z,27
2019-04-07T10:34:38.670Z,27.3
2019-04-07T10:35:41.816Z,26.9
2019-04-07T10:36:43.997Z,27.2
2019-04-07T10:37:47.172Z,27.3
2019-04-07T10:38:54.354Z,27
2019-04-07T10:39:59.393Z,27.2
2019-04-07T10:41:02.970Z,27.2
2019-04-07T10:42:07.340Z,27.1
2019-04-07T10:43:10.751Z,27.2
2019-04-07T10:44:16.116Z,27.1
2019-04-07T10:45:20.698Z,27.1
2019-04-07T10:46:24.357Z,27.3
2019-04-07T10:47:29.132Z,27.3
2019-04-07T10:48:33.178Z,27.1
2019-04-07T10:49:36.206Z,27.1
2019-04-07T10:50:41.136Z,27.1
2019-04-07T10:51:45.813Z,27.3
2019-04-07T10:52:52.046Z,27.2
2019-04-07T10:53:57.254Z,27.2
2019-04-07T10:55:01.115Z,27.1
2019-04-07T10:56:04.088Z,27.3
2019-04-07T10:57:07.913Z,27.2
2019-04-07T10:58:11.700Z,27.1
2019-04-07T10:59:14.624Z,27.2
2019-04-07T11:00:19.256Z,27.1
2019-04-07T11:01:24.610Z,27.1
2019-04-07T11:02:28.017Z,27.2
2019-04-07T11:03:31.891Z,27.2
2019-04-07T11:04:36.495Z,27.1
2019-04-07T11:05:41.037Z,27
2019-04-07T11:06:45.009Z,27.1
2019-04-07T11:07:49.315Z,27.1
2019-04-07T11:08:52.155Z,27.2
2019-04-07T11:09:56.075Z,27.1
2019-04-07T11:11:01.327Z,27.1
2019-04-07T11:12:05.075Z,27.1
2019-04-07T11:13:08.919Z,27.2
2019-04-07T11:14:16.148Z,27.2
2019-04-07T11:15:20.299Z,27.1
2019-04-07T11:16:23.334Z,27.4
2019-04-07T11:17:25.734Z,27.1
2019-04-07T11:18:29.733Z,27.2
2019-04-07T11:19:33.392Z,27
2019-04-07T11:20:38.539Z,26.9
2019-04-07T11:21:40.968Z,27.1
2019-04-07T11:22:44.097Z,27
2019-04-07T11:23:46.881Z,27
2019-04-07T11:24:49.826Z,27.1
2019-04-07T11:25:54.902Z,27.2
2019-04-07T11:26:58.141Z,27.1
2019-04-07T11:28:01.454Z,27.4
2019-04-07T11:29:06.893Z,27.1
2019-04-07T11:30:11.369Z,27.2
2019-04-07T11:31:14.631Z,27.2
2019-04-07T11:32:20.035Z,27.3
2019-04-07T11:33:23.370Z,27.2
2019-04-07T11:34:27.184Z,27.1
2019-04-07T11:35:32.019Z,27.2
2019-04-07T11:36:35.329Z,27.3
2019-04-07T11:37:40.774Z,27.1
2019-04-07T11:38:46.273Z,27.3
2019-04-07T11:39:48.913Z,27.2
2019-04-07T11:40:52.409Z,27.3
2019-04-07T11:41:55.792Z,27.2
2019-04-07T11:43:00.053Z,27.3
2019-04-07T11:44:03.843Z,27.4
2019-04-07T11:45:09.172Z,27.3
2019-04-07T11:46:12.806Z,27.3
2019-04-07T11:47:17.479Z,27.2
2019-04-07T11:48:22.040Z,27.3
2019-04-07T11:49:26.834Z,27.4
2019-04-07T11:50:29.906Z,27.3
2019-04-07T11:51:35.772Z,27.3
2019-04-07T11:52:41.827Z,27.3
2019-04-07T11:53:44.252Z,27.2
2019-04-07T11:54:49.171Z,27.1
2019-04-07T11:55:53.635Z,27.4
2019-04-07T11:56:55.668Z,27.3
2019-04-07T11:58:07.964Z,27.3
2019-04-07T11:59:06.808Z,27.5
2019-04-07T12:00:09.884Z,27.3
2019-04-07T12:01:14.741Z,27.3
2019-04-07T12:02:20.770Z,27.3
2019-04-07T12:03:25.980Z,27.3
2019-04-07T12:04:29.508Z,27.4
2019-04-07T12:05:34.739Z,27.3
2019-04-07T12:06:38.686Z,27.3
2019-04-07T12:07:41.399Z,27.1
2019-04-07T12:08:44.571Z,27.2
2019-04-07T12:09:49.445Z,27.3
2019-04-07T12:10:58.217Z,27.6
2019-04-07T12:11:58.296Z,27.5
2019-04-07T12:13:01.259Z,27.3
2019-04-07T12:14:04.185Z,27.4
2019-04-07T12:15:09.581Z,27.2
2019-04-07T12:16:13.325Z,27.4
2019-04-07T12:17:18.794Z,27.2
2019-04-07T12:18:23.287Z,27.4
2019-04-07T12:19:26.165Z,27.3
2019-04-07T12:20:33.769Z,27.3
2019-04-07T12:21:37.521Z,27.1
2019-04-07T12:22:44.688Z,27.3
2019-04-07T12:23:46.789Z,27.3
2019-04-07T12:24:57.466Z,27.4
2019-04-07T12:25:57.737Z,27.1
2019-04-07T12:27:04.783Z,27.4
2019-04-07T12:28:15.851Z,27.5
2019-04-07T12:29:17.859Z,27.3
2019-04-07T12:30:22.247Z,27.3
2019-04-07T12:31:27.693Z,27.2
2019-04-07T12:32:32.487Z,27.4
2019-04-07T12:33:38.506Z,27.4
2019-04-07T12:34:43.858Z,27.4
2019-04-07T12:35:50.262Z,27.3
2019-04-07T12:36:51.632Z,27.4
2019-04-07T12:37:57.937Z,27.1
2019-04-07T12:39:00.318Z,27.1
2019-04-07T12:40:05.370Z,27.2
2019-04-07T12:41:14.792Z,27.5
2019-04-07T12:42:15.671Z,27.2
2019-04-07T12:43:19.074Z,27.2
2019-04-07T12:44:21.717Z,27.2
2019-04-07T12:45:26.585Z,27.4
2019-04-07T12:46:32.094Z,27.3
2019-04-07T12:47:36.567Z,27.3
2019-04-07T12:48:39.177Z,27.4
2019-04-07T12:49:45.548Z,27.4
2019-04-07T12:50:50.897Z,27.3
2019-04-07T12:51:56.101Z,27.2
2019-04-07T12:53:02.724Z,27.2
2019-04-07T12:54:08.104Z,27.2
2019-04-07T12:55:14.052Z,27.2
2019-04-07T12:56:15.796Z,27.4
2019-04-07T12:57:19.048Z,27.2
2019-04-07T12:58:23.215Z,27.4
2019-04-07T12:59:28.321Z,27.2
2019-04-07T13:00:34.125Z,27.3
2019-04-07T13:01:37.074Z,27.4
2019-04-07T13:02:43.611Z,27.4
2019-04-07T13:03:53.423Z,27.3
2019-04-07T13:04:59.637Z,27.3
2019-04-07T13:06:06.230Z,27.4
2019-04-07T13:07:08.927Z,27.3
2019-04-07T13:08:15.189Z,27.5
2019-04-07T13:09:23.236Z,27.4
2019-04-07T13:10:27.985Z,27.4
2019-04-07T13:11:37.160Z,27.4
2019-04-07T13:12:38.729Z,27.1
2019-04-07T13:13:42.765Z,27.3
2019-04-07T13:14:47.630Z,27.4
2019-04-07T13:15:52.034Z,27.3
2019-04-07T13:16:56.261Z,27.5
2019-04-07T13:18:03.535Z,27.4
2019-04-07T13:19:09.115Z,27.3
2019-04-07T13:20:10.558Z,27.4
2019-04-07T13:21:22.308Z,27.2
2019-04-07T13:22:23.952Z,27.3
2019-04-07T13:23:32.980Z,27.5
2019-04-07T13:24:39.143Z,27.3
2019-04-07T13:25:45.334Z,27.3
2019-04-07T13:26:52.893Z,27.3
2019-04-07T13:27:57.822Z,27.3
2019-04-07T13:29:01.744Z,27.5
2019-04-07T13:30:05.906Z,27.3
2019-04-07T13:31:10.140Z,27.2
2019-04-07T13:32:15.082Z,27.4
2019-04-07T13:33:20.309Z,27.1
2019-04-07T13:34:23.433Z,27.2
2019-04-07T13:35:26.491Z,27.5
2019-04-07T13:36:28.695Z,27.5
2019-04-07T13:37:32.937Z,27.4
2019-04-07T13:38:38.337Z,27.4
2019-04-07T13:39:45.154Z,27.1
2019-04-07T13:40:48.606Z,27.2
2019-04-07T13:41:55.133Z,27.5
2019-04-07T13:43:00.770Z,27.4
2019-04-07T13:44:06.959Z,27.5
2019-04-07T13:45:10.374Z,27.4
2019-04-07T13:46:20.973Z,27.4
2019-04-07T13:47:17.807Z,27.4
2019-04-07T13:48:23.852Z,27.4
2019-04-07T13:49:27.872Z,27.3
2019-04-07T13:50:35.353Z,27.5
2019-04-07T13:51:40.797Z,27.4
2019-04-07T13:52:44.382Z,27.6
2019-04-07T13:53:51.206Z,27.5
2019-04-07T13:54:59.048Z,27.2
2019-04-07T13:56:05.044Z,27.5
2019-04-07T13:57:14.423Z,27.2
2019-04-07T13:58:23.236Z,27.4
2019-04-07T13:59:31.540Z,27.4
2019-04-07T14:00:40.564Z,27.7
2019-04-07T14:01:48.206Z,27.5
2019-04-07T14:02:51.060Z,27.3
2019-04-07T14:03:56.360Z,27.4
2019-04-07T14:04:59.873Z,27.3
2019-04-07T14:06:05.413Z,27.6
2019-04-07T14:07:12.112Z,27.2
2019-04-07T14:08:18.674Z,27.3
2019-04-07T14:09:27.099Z,27.7
2019-04-07T14:10:30.945Z,27.4
2019-04-07T14:11:36.034Z,27.4
2019-04-07T14:12:42.219Z,27.1
2019-04-07T14:13:47.199Z,27.4
2019-04-07T14:14:49.537Z,27.4
2019-04-07T14:15:52.161Z,27.4
2019-04-07T14:16:54.965Z,27.5
2019-04-07T14:17:58.702Z,27.4
2019-04-07T14:19:02.516Z,27.5
2019-04-07T14:20:06.089Z,27.5
2019-04-07T14:21:11.561Z,27.3